
Director’s Office
*employee works off site
She/her
Website Developer/Designer
| Date Time MST |
Temp °F |
RH % |
DewPt °F |
Wind mph |
Dir ° |
Gust mph |
Dir ° |
Press in Hg |
Solar W/m^2 |
Prec in |
|---|---|---|---|---|---|---|---|---|---|---|
| 2026-05-04 23:35 | 43.4 | 81.4 | 38.1 | 14.2 | 325 | 17.8 | 322 | 24.774 | 0.2 | 0.00 |
| 2026-05-04 23:30 | 43.6 | 80.2 | 37.9 | 14.3 | 306 | 19.2 | 336 | 24.774 | 0.3 | 0.00 |
| 2026-05-04 23:25 | 43.7 | 80.6 | 38.2 | 12.4 | 331 | 18.5 | 324 | 24.774 | 0.2 | 0.00 |
| 2026-05-04 23:20 | 43.9 | 81.2 | 38.5 | 11.3 | 329 | 14.6 | 325 | 24.774 | 0.3 | 0.00 |
| 2026-05-04 23:15 | 44.0 | 79.7 | 38.1 | 11.8 | 318 | 15.9 | 318 | 24.774 | 0.3 | 0.00 |
| 2026-05-04 23:10 | 44.2 | 80.1 | 38.4 | 13.2 | 322 | 17.1 | 321 | 24.770 | 0.3 | 0.00 |
| 2026-05-04 23:05 | 44.5 | 79.1 | 38.4 | 14.1 | 324 | 20.4 | 301 | 24.770 | 0.3 | 0.00 |
| 2026-05-04 23:00 | 44.7 | 78.0 | 38.3 | 15.7 | 309 | 21.1 | 331 | 24.769 | 0.2 | 0.00 |
| 2026-05-04 22:55 | 44.7 | 78.2 | 38.3 | 15.5 | 296 | 19.6 | 314 | 24.769 | 0.2 | 0.00 |
| 2026-05-04 22:50 | 44.5 | 78.2 | 38.2 | 13.2 | 297 | 17.5 | 306 | 24.766 | 0.3 | 0.00 |
| 2026-05-04 22:45 | 44.4 | 79.9 | 38.6 | 10.8 | 295 | 14.2 | 274 | 24.760 | 0.4 | 0.00 |
| 2026-05-04 22:40 | 44.4 | 81.7 | 39.2 | 9.7 | 306 | 12.8 | 314 | 24.756 | 0.3 | 0.00 |
| 2026-05-04 22:35 | 44.5 | 81.6 | 39.2 | 11.6 | 333 | 15.3 | 327 | 24.752 | 0.4 | 0.00 |
| 2026-05-04 22:30 | 45.0 | 82.1 | 39.8 | 13.0 | 339 | 17.6 | 353 | 24.751 | 0.4 | 0.00 |
| 2026-05-04 22:25 | 46.3 | 80.0 | 40.5 | 16.9 | 351 | 22.7 | 356 | 24.747 | 0.3 | 0.00 |
| 2026-05-04 22:20 | 48.4 | 77.5 | 41.7 | 17.7 | 4 | 30.0 | 5 | 24.743 | 0.2 | 0.00 |
| 2026-05-04 22:15 | 49.5 | 85.9 | 45.4 | 8.5 | 353 | 11.1 | 350 | 24.734 | 0.4 | 0.00 |
| 2026-05-04 22:10 | 49.4 | 86.8 | 45.6 | 7.8 | 338 | 9.5 | 354 | 24.731 | 0.4 | 0.00 |
| 2026-05-04 22:05 | 49.5 | 87.0 | 45.8 | 6.9 | 341 | 7.9 | 334 | 24.729 | 0.3 | 0.00 |
| 2026-05-04 22:00 | 49.4 | 87.5 | 45.8 | 7.2 | 328 | 7.6 | 336 | 24.729 | 0.3 | 0.00 |
| 2026-05-04 21:55 | 49.4 | 86.6 | 45.5 | 5.9 | 337 | 7.0 | 337 | 24.727 | 0.2 | 0.00 |
| 2026-05-04 21:50 | 49.5 | 85.1 | 45.2 | 4.3 | 335 | 5.2 | 335 | 24.726 | 0.2 | 0.00 |
| 2026-05-04 21:45 | 49.5 | 84.3 | 45.0 | 3.9 | 318 | 5.1 | 319 | 24.727 | 0.2 | 0.00 |
| 2026-05-04 21:40 | 49.5 | 83.1 | 44.6 | 4.4 | 320 | 5.1 | 341 | 24.727 | 0.2 | 0.00 |
| 2026-05-04 21:35 | 49.4 | 83.6 | 44.7 | 3.7 | 339 | 4.7 | 350 | 24.725 | 0.3 | 0.00 |
| 2026-05-04 21:30 | 49.5 | 83.4 | 44.7 | 2.9 | 6 | 3.6 | 13 | 24.722 | 0.3 | 0.00 |
| 2026-05-04 21:25 | 49.5 | 82.9 | 44.5 | 2.6 | 21 | 3.3 | 2 | 24.721 | 0.3 | 0.00 |
| 2026-05-04 21:20 | 49.5 | 83.2 | 44.7 | 3.5 | 4 | 3.9 | 354 | 24.719 | 0.3 | 0.00 |
| 2026-05-04 21:15 | 49.7 | 83.8 | 45.0 | 2.8 | 323 | 3.6 | 309 | 24.719 | 0.4 | 0.00 |
| 2026-05-04 21:10 | 49.8 | 84.4 | 45.3 | 2.1 | 332 | 2.3 | 323 | 24.717 | 0.4 | 0.00 |
| Date Time MST |
Temp °C |
RH % |
DewPt °C |
Wind m/s |
Dir ° |
Gust m/s |
Dir ° |
Press hPa |
Solar W/m^2 |
Prec mm |
|---|---|---|---|---|---|---|---|---|---|---|
| 2026-05-04 23:35 | 6.3 | 81.4 | 3.4 | 6.4 | 325 | 8.0 | 322 | 838.96 | 0.2 | 0.00 |
| 2026-05-04 23:30 | 6.4 | 80.2 | 3.3 | 6.4 | 306 | 8.6 | 336 | 838.94 | 0.3 | 0.00 |
| 2026-05-04 23:25 | 6.5 | 80.6 | 3.4 | 5.5 | 331 | 8.2 | 324 | 838.93 | 0.2 | 0.00 |
| 2026-05-04 23:20 | 6.6 | 81.2 | 3.6 | 5.0 | 329 | 6.5 | 325 | 838.94 | 0.3 | 0.00 |
| 2026-05-04 23:15 | 6.7 | 79.7 | 3.4 | 5.3 | 318 | 7.1 | 318 | 838.93 | 0.3 | 0.00 |
| 2026-05-04 23:10 | 6.8 | 80.1 | 3.6 | 5.9 | 322 | 7.6 | 321 | 838.82 | 0.3 | 0.00 |
| 2026-05-04 23:05 | 6.9 | 79.1 | 3.6 | 6.3 | 324 | 9.1 | 301 | 838.80 | 0.3 | 0.00 |
| 2026-05-04 23:00 | 7.1 | 78.0 | 3.5 | 7.0 | 309 | 9.4 | 331 | 838.77 | 0.2 | 0.00 |
| 2026-05-04 22:55 | 7.1 | 78.2 | 3.5 | 6.9 | 296 | 8.8 | 314 | 838.76 | 0.2 | 0.00 |
| 2026-05-04 22:50 | 7.0 | 78.2 | 3.4 | 5.9 | 297 | 7.8 | 306 | 838.66 | 0.3 | 0.00 |
| 2026-05-04 22:45 | 6.9 | 79.9 | 3.7 | 4.8 | 295 | 6.4 | 274 | 838.48 | 0.4 | 0.00 |
| 2026-05-04 22:40 | 6.9 | 81.7 | 4.0 | 4.4 | 306 | 5.7 | 314 | 838.34 | 0.3 | 0.00 |
| 2026-05-04 22:35 | 6.9 | 81.6 | 4.0 | 5.2 | 333 | 6.8 | 327 | 838.21 | 0.4 | 0.00 |
| 2026-05-04 22:30 | 7.2 | 82.1 | 4.4 | 5.8 | 339 | 7.9 | 353 | 838.15 | 0.4 | 0.00 |
| 2026-05-04 22:25 | 7.9 | 80.0 | 4.7 | 7.5 | 351 | 10.2 | 356 | 838.03 | 0.3 | 0.00 |
| 2026-05-04 22:20 | 9.1 | 77.5 | 5.4 | 7.9 | 4 | 13.4 | 5 | 837.89 | 0.2 | 0.00 |
| 2026-05-04 22:15 | 9.7 | 85.9 | 7.5 | 3.8 | 353 | 5.0 | 350 | 837.60 | 0.4 | 0.00 |
| 2026-05-04 22:10 | 9.7 | 86.8 | 7.6 | 3.5 | 338 | 4.2 | 354 | 837.48 | 0.4 | 0.00 |
| 2026-05-04 22:05 | 9.7 | 87.0 | 7.6 | 3.1 | 341 | 3.5 | 334 | 837.43 | 0.3 | 0.00 |
| 2026-05-04 22:00 | 9.6 | 87.5 | 7.7 | 3.2 | 328 | 3.4 | 336 | 837.42 | 0.3 | 0.00 |
| 2026-05-04 21:55 | 9.7 | 86.6 | 7.5 | 2.7 | 337 | 3.1 | 337 | 837.34 | 0.2 | 0.00 |
| 2026-05-04 21:50 | 9.7 | 85.1 | 7.3 | 1.9 | 335 | 2.3 | 335 | 837.30 | 0.2 | 0.00 |
| 2026-05-04 21:45 | 9.8 | 84.3 | 7.2 | 1.7 | 318 | 2.3 | 319 | 837.34 | 0.2 | 0.00 |
| 2026-05-04 21:40 | 9.8 | 83.1 | 7.0 | 2.0 | 320 | 2.3 | 341 | 837.35 | 0.2 | 0.00 |
| 2026-05-04 21:35 | 9.7 | 83.6 | 7.0 | 1.6 | 339 | 2.1 | 350 | 837.28 | 0.3 | 0.00 |
| 2026-05-04 21:30 | 9.7 | 83.4 | 7.0 | 1.3 | 6 | 1.6 | 13 | 837.17 | 0.3 | 0.00 |
| 2026-05-04 21:25 | 9.7 | 82.9 | 7.0 | 1.2 | 21 | 1.5 | 2 | 837.14 | 0.3 | 0.00 |
| 2026-05-04 21:20 | 9.7 | 83.2 | 7.0 | 1.6 | 4 | 1.7 | 354 | 837.08 | 0.3 | 0.00 |
| 2026-05-04 21:15 | 9.8 | 83.8 | 7.2 | 1.2 | 323 | 1.6 | 309 | 837.08 | 0.4 | 0.00 |
| 2026-05-04 21:10 | 9.9 | 84.4 | 7.4 | 0.9 | 332 | 1.0 | 323 | 837.03 | 0.4 | 0.00 |

Director’s Office
*employee works off site
She/her
Website Developer/Designer
Barbra.Lashbrook@colostate.edu
Cooperative Institute for Research in the Atmosphere
Colorado State University
1375 Campus Delivery
Fort Collins, CO 80523
970-491-8276
Awards:
– 2025 CIRA Exceptional Service Award
– 2021 CIRA Exceptional Service Award